• Join FlightAware (Why Join?)
  • Login
  • US Flag 
03:43PM EDT


 

Airport Tracker/Info


-or-


 

Live Flight TrackerFlight Track Log ✈ N441CX ✈ 02-May-2014 ✈ KHEI - KBIS

Flight Track Log - Related Links

Times and Time Zones

All times are in EDT time to prevent confusion due to time zone crossing. See the N441CX flight status page for this flight to view local times or setup timezone preferences in your user account.

Time Position Orientation Groundspeed Altitude Reporting Facility
EDT Latitude Longitude Course Direction KTS MPH feet Rate Location/Type
11:11PM 46.1920 -102.2108 61° Northeast  Level FlightAware Approximate
11:12PM 46.2214 -102.1346 61° Northeast  Level FlightAware Approximate
11:13PM 46.2507 -102.0582 61° Northeast  Level FlightAware Approximate
11:14PM 46.2805 -101.9821 60° Northeast  Level FlightAware Approximate
11:15PM 46.3093 -101.9054 64° Northeast  Level FlightAware Approximate
11:16PM 46.3333 -101.8259 90° East  Level FlightAware Approximate
11:16PM 46.0772 -102.5253 61° Northeast 229 264 8,100  Level Minneapolis Center
11:17PM 46.3651 -101.7533 54° Northeast  Level FlightAware Approximate
11:17PM 46.0914 -102.4600 73° East 176 203 10,400  Level Minneapolis Center
11:18PM 46.4005 -101.6823 54° Northeast  Level FlightAware Approximate
11:18PM 46.1167 -102.3989 59° Northeast 176 203 12,100  Level Minneapolis Center
11:19PM 46.4327 -101.6084 61° Northeast  Level FlightAware Approximate
11:19PM 46.1428 -102.3325 60° Northeast 179 206 13,100  Level Minneapolis Center
11:20PM 46.4622 -101.5318 61° Northeast  Level FlightAware Approximate
11:20PM 46.1783 -102.2494 58° Northeast 210 242 13,100  Level Minneapolis Center
11:21PM 46.4916 -101.4552 61° Northeast  Level FlightAware Approximate
11:21PM 46.2192 -102.1586 57° Northeast 243 280 12,300  Level Minneapolis Center
11:22PM 46.2603 -102.0572 60° Northeast 275 316 11,400 -660 Descending Minneapolis Center
11:23PM 46.3000 -101.9642 58° Northeast 278 320 11,000 -240 Descending Minneapolis Center
11:24PM 46.3369 -101.8808 57° Northeast 269 310 11,000  Level Minneapolis Center
11:25PM 46.3667 -101.7989 62° Northeast 248 285 11,000  Level Minneapolis Center
11:26PM 46.4039 -101.7033 61° Northeast 235 270 11,000  Level Minneapolis Center
11:27PM 46.4347 -101.6200 62° Northeast 235 270 11,000  Level Minneapolis Center
11:28PM 46.4664 -101.5361 61° Northeast 235 270 11,000  Level Minneapolis Center
11:29PM 46.4992 -101.4519 60° Northeast 235 270 11,000  Level Minneapolis Center
11:30PM 46.5331 -101.3614 61° Northeast 241 277 11,000  Level Minneapolis Center
11:31PM 46.5697 -101.2742 59° Northeast 246 283 11,000  Level Minneapolis Center
11:32PM 46.6014 -101.1889 62° Northeast 247 284 11,000  Level Minneapolis Center
11:33PM 46.6336 -101.1081 60° Northeast 243 280 11,000  Level Minneapolis Center
11:34PM 46.6661 -101.0242 61° Northeast 241 277 11,000 -840 Level Minneapolis Center
11:35PM 46.7072 -100.9161 61° Northeast 250 288 9,300 -1,620 Descending Minneapolis Center
11:36PM 46.7419 -100.8294 60° Northeast 259 298 7,800 -1,800 Descending Minneapolis Center
11:37PM 46.7414 -100.7278 90° East 244 281 5,700 -1,500 Descending Minneapolis Center
11:38PM 46.7250 -100.6533 108° East 185 213 4,800 -960 Descending Minneapolis Center
11:39PM 46.7025 -100.6675 203° Southwest 146 168 3,800 -1,140 Descending Minneapolis Center
11:40PM 46.7333 -100.6939 330° Northwest 131 151 2,500 -900 Descending Minneapolis Center
11:41PM 46.7550 -100.7228 318° Northwest 118 136 2,000 -480 Descending Minneapolis Center
11:42PM 46.7764 -100.7492 320° Northwest 98 113 1,600 -240 Descending Minneapolis Center
11:43PM 46.7783 -100.7564 291° West 38 44 1,600  Level Minneapolis Center
11:44PM 46.7781 -100.7600 264° West 17 20 1,600  Level Minneapolis Center
11:45PM 46.7778 -100.7597 146° Southeast 6 7 1,600  Level Minneapolis Center